createdAt,value
2019-04-14T00:01:08.987Z,2.07
2019-04-14T00:03:47.782Z,2.01
2019-04-14T00:06:18.597Z,1.91
2019-04-14T00:08:50.145Z,1.90
2019-04-14T00:11:21.478Z,1.78
2019-04-14T00:13:52.436Z,1.91
2019-04-14T00:16:22.873Z,1.88
2019-04-14T00:18:53.513Z,1.84
2019-04-14T00:21:23.954Z,1.82
2019-04-14T00:23:54.526Z,1.93
2019-04-14T00:26:31.623Z,1.94
2019-04-14T00:29:02.657Z,1.98
2019-04-14T00:31:33.336Z,1.92
2019-04-14T00:34:07.925Z,1.89
2019-04-14T00:36:46.553Z,1.97
2019-04-14T00:39:38.195Z,1.97
2019-04-14T00:42:25.637Z,1.91
2019-04-14T00:45:00.470Z,1.83
2019-04-14T00:47:49.827Z,1.83
2019-04-14T00:50:10.258Z,1.89
2019-04-14T00:52:41.533Z,1.79
2019-04-14T00:55:12.054Z,1.82
2019-04-14T00:57:42.547Z,1.77
2019-04-14T01:00:17.253Z,1.73
2019-04-14T01:02:47.186Z,1.67
2019-04-14T01:05:17.760Z,1.65
2019-04-14T01:07:48.591Z,1.68
2019-04-14T01:10:19.251Z,1.55
2019-04-14T01:12:49.842Z,1.58
2019-04-14T01:15:20.268Z,1.57
2019-04-14T01:17:50.752Z,1.56
2019-04-14T01:20:23.159Z,1.54
2019-04-14T01:22:53.670Z,1.46
2019-04-14T01:25:24.107Z,1.32
2019-04-14T01:27:54.599Z,1.26
2019-04-14T01:30:26.202Z,1.15
2019-04-14T01:32:56.742Z,1.08
2019-04-14T01:35:27.613Z,1.07
2019-04-14T01:37:59.347Z,1.07
2019-04-14T01:40:31.465Z,1.06
2019-04-14T01:43:02.382Z,1.03
2019-04-14T01:45:33.891Z,1.02
2019-04-14T01:48:04.549Z,1.12
2019-04-14T01:50:47.965Z,1.17
2019-04-14T01:53:27.755Z,1.19
2019-04-14T01:56:16.535Z,1.29
2019-04-14T01:58:51.229Z,1.27
2019-04-14T02:01:28.201Z,1.29
2019-04-14T02:03:58.706Z,1.26
2019-04-14T02:06:29.143Z,1.32
2019-04-14T02:08:59.631Z,1.36
2019-04-14T02:11:31.279Z,1.37
2019-04-14T02:14:02.057Z,1.32
2019-04-14T02:16:39.527Z,1.31
2019-04-14T02:19:04.819Z,1.31
2019-04-14T02:21:36.597Z,1.27
2019-04-14T02:24:07.320Z,1.31
2019-04-14T02:26:37.767Z,1.27
2019-04-14T02:29:08.208Z,1.29
2019-04-14T02:32:01.488Z,1.30
2019-04-14T02:34:41.667Z,1.31
2019-04-14T02:37:10.655Z,1.27
2019-04-14T02:39:45.987Z,1.44
2019-04-14T02:44:43.987Z,1.44
2019-04-14T02:47:39.133Z,1.44
2019-04-14T02:49:51.226Z,1.36
2019-04-14T02:52:28.259Z,1.35
2019-04-14T02:57:43.071Z,1.15
2019-04-14T02:59:58.831Z,1.01
2019-04-14T03:02:39.891Z,0.97
2019-04-14T03:07:36.306Z,0.94
2019-04-14T03:10:16.401Z,0.93
2019-04-14T03:12:40.705Z,0.85
2019-04-14T03:15:17.050Z,0.78
2019-04-14T03:18:23.999Z,0.70
2019-04-14T03:20:58.417Z,0.71
2019-04-14T03:26:11.781Z,0.82
2019-04-14T03:28:51.659Z,0.78
2019-04-14T03:39:07.996Z,0.66
2019-04-14T03:41:36.729Z,0.68
2019-04-14T03:44:09.848Z,0.69
2019-04-14T03:46:45.059Z,0.64
2019-04-14T03:51:52.525Z,0.70
2019-04-14T03:54:09.712Z,0.72
2019-04-14T03:56:49.058Z,0.77
2019-04-14T03:59:21.696Z,0.78
2019-04-14T04:01:52.888Z,0.77
2019-04-14T04:04:24.870Z,0.75
2019-04-14T04:06:55.934Z,0.72
2019-04-14T04:09:36.798Z,0.72
2019-04-14T04:12:07.547Z,0.72
2019-04-14T04:14:37.929Z,0.69
2019-04-14T04:17:34.271Z,0.69
2019-04-14T04:20:43.480Z,0.68
2019-04-14T04:23:33.497Z,0.70
2019-04-14T04:26:25.893Z,0.69
2019-04-14T04:29:33.722Z,0.71
2019-04-14T04:32:25.393Z,0.68
2019-04-14T04:35:08.578Z,0.70
2019-04-14T04:37:52.038Z,0.67
2019-04-14T04:40:26.812Z,0.71
2019-04-14T04:42:59.110Z,0.70
2019-04-14T04:45:30.084Z,0.76
2019-04-14T04:48:00.585Z,0.68
2019-04-14T04:50:32.393Z,0.71
2019-04-14T04:53:02.981Z,0.69
2019-04-14T04:55:35.082Z,0.63
2019-04-14T04:58:05.735Z,0.65
2019-04-14T05:00:37.276Z,0.62
2019-04-14T05:03:07.967Z,0.67
2019-04-14T05:06:09.120Z,0.63
2019-04-14T05:08:43.994Z,0.69
2019-04-14T05:11:23.064Z,0.72
2019-04-14T05:13:53.921Z,0.69
2019-04-14T05:16:25.953Z,0.68
2019-04-14T05:19:10.095Z,0.63
2019-04-14T05:21:29.894Z,0.73
2019-04-14T05:24:00.676Z,0.78
2019-04-14T05:26:31.194Z,0.83
2019-04-14T05:29:01.704Z,0.83
2019-04-14T05:31:32.149Z,0.88
2019-04-14T05:34:02.613Z,0.93
2019-04-14T05:36:34.422Z,1.01
2019-04-14T05:39:06.839Z,1.06
2019-04-14T05:41:37.547Z,1.12
2019-04-14T05:44:08.093Z,1.15
2019-04-14T05:46:38.530Z,1.21
2019-04-14T05:49:08.965Z,1.28
2019-04-14T05:51:39.460Z,1.26
2019-04-14T05:54:10.049Z,1.28
2019-04-14T05:56:40.766Z,1.34
2019-04-14T05:59:11.420Z,1.30
2019-04-14T06:01:42.112Z,1.26
2019-04-14T06:04:13.895Z,1.31
2019-04-14T06:06:44.394Z,1.38
2019-04-14T06:09:15.161Z,1.44
2019-04-14T06:11:45.627Z,1.47
2019-04-14T06:14:16.114Z,1.46
2019-04-14T06:16:46.553Z,1.54
2019-04-14T06:19:17.326Z,1.52
2019-04-14T06:21:48.335Z,1.59
2019-04-14T06:24:18.769Z,1.67
2019-04-14T06:26:49.206Z,1.65
2019-04-14T06:29:20.006Z,1.69
2019-04-14T06:32:09.382Z,1.78
2019-04-14T06:34:57.748Z,1.76
2019-04-14T06:37:49.884Z,1.73
2019-04-14T06:40:20.811Z,1.75
2019-04-14T06:42:51.248Z,1.72
2019-04-14T06:45:21.981Z,1.87
2019-04-14T06:47:53.292Z,1.99
2019-04-14T06:50:24.087Z,2.14
2019-04-14T06:52:54.536Z,2.18
2019-04-14T06:55:25.158Z,2.36
2019-04-14T06:57:55.916Z,2.50
2019-04-14T07:00:26.694Z,2.66
2019-04-14T07:02:57.942Z,2.82
2019-04-14T07:05:28.381Z,3.04
2019-04-14T07:07:58.814Z,3.28
2019-04-14T07:10:29.322Z,3.43
2019-04-14T07:12:59.761Z,3.57
2019-04-14T07:15:30.200Z,3.58
2019-04-14T07:18:00.679Z,3.59
2019-04-14T07:20:31.115Z,3.49
2019-04-14T07:23:01.897Z,3.52
2019-04-14T07:25:32.407Z,3.61
2019-04-14T07:28:02.855Z,3.65
2019-04-14T07:30:42.863Z,3.70
2019-04-14T07:33:35.062Z,3.80
2019-04-14T07:36:22.955Z,3.99
2019-04-14T07:39:06.474Z,4.04
2019-04-14T07:41:43.885Z,4.06
2019-04-14T07:44:24.434Z,4.20
2019-04-14T07:46:58.692Z,4.35
2019-04-14T07:49:56.994Z,4.37
2019-04-14T07:52:34.719Z,4.53
2019-04-14T07:55:23.116Z,4.69
2019-04-14T07:58:04.227Z,4.82
2019-04-14T08:00:52.011Z,4.97
2019-04-14T08:03:44.306Z,5.12
2019-04-14T08:06:14.746Z,5.23
2019-04-14T08:08:45.191Z,5.34
2019-04-14T08:11:15.695Z,5.22
2019-04-14T08:13:46.501Z,5.09
2019-04-14T08:16:16.950Z,4.96
2019-04-14T08:18:47.499Z,4.93
2019-04-14T08:21:18.310Z,4.92
2019-04-14T08:23:48.747Z,5.07
2019-04-14T08:26:21.014Z,5.18
2019-04-14T08:28:51.460Z,5.48
2019-04-14T08:31:22.278Z,5.66
2019-04-14T08:33:52.866Z,5.71
2019-04-14T08:36:23.306Z,5.93
2019-04-14T08:38:53.757Z,5.99
2019-04-14T08:41:24.613Z,6.01
2019-04-14T08:44:01.928Z,6.11
2019-04-14T08:46:50.607Z,6.11
2019-04-14T08:49:51.988Z,6.03
2019-04-14T08:52:28.283Z,6.22
2019-04-14T08:55:18.099Z,6.33
2019-04-14T08:57:55.312Z,6.39
2019-04-14T09:00:41.655Z,6.09
2019-04-14T09:03:23.559Z,5.84
2019-04-14T09:06:11.846Z,5.66
2019-04-14T09:08:52.894Z,5.67
2019-04-14T09:11:29.629Z,5.72
2019-04-14T09:14:00.122Z,5.75
2019-04-14T09:16:30.569Z,5.72
2019-04-14T09:19:07.407Z,5.72
2019-04-14T09:21:33.621Z,5.68
2019-04-14T09:24:04.171Z,5.66
2019-04-14T09:26:34.648Z,5.70
2019-04-14T09:29:05.134Z,5.74
2019-04-14T09:31:35.974Z,5.74
2019-04-14T09:34:06.445Z,5.81
2019-04-14T09:36:37.327Z,5.93
2019-04-14T09:39:08.697Z,5.97
2019-04-14T09:41:39.169Z,5.97
2019-04-14T09:44:10.621Z,5.89
2019-04-14T09:46:41.058Z,5.91
2019-04-14T09:49:11.499Z,5.79
2019-04-14T09:51:42.381Z,5.77
2019-04-14T09:54:13.307Z,5.72
2019-04-14T09:56:43.750Z,5.49
2019-04-14T09:59:14.590Z,5.56
2019-04-14T10:01:45.225Z,5.60
2019-04-14T10:04:15.694Z,5.61
2019-04-14T10:06:46.219Z,5.59
2019-04-14T10:09:17.023Z,5.66
2019-04-14T10:11:51.150Z,5.63
2019-04-14T10:14:20.149Z,5.62
2019-04-14T10:16:51.082Z,5.66
2019-04-14T10:19:21.530Z,5.68
2019-04-14T10:21:52.037Z,5.64
2019-04-14T10:24:22.762Z,5.72
2019-04-14T10:26:53.598Z,5.75
2019-04-14T10:29:24.762Z,5.74
2019-04-14T10:31:55.670Z,5.88
2019-04-14T10:34:26.848Z,5.77
2019-04-14T10:36:57.339Z,5.77
2019-04-14T10:39:27.802Z,5.74
2019-04-14T10:41:58.541Z,5.72
2019-04-14T10:44:29.038Z,5.70
2019-04-14T10:46:59.858Z,5.60
2019-04-14T10:49:31.483Z,5.54
2019-04-14T10:52:02.990Z,5.43
2019-04-14T10:54:33.503Z,5.45
2019-04-14T10:57:03.937Z,5.40
2019-04-14T10:59:34.426Z,5.36
2019-04-14T11:02:05.258Z,5.35
2019-04-14T11:04:36.098Z,5.38
2019-04-14T11:07:10.050Z,5.36
2019-04-14T11:09:40.585Z,5.38
2019-04-14T11:12:12.158Z,5.35
2019-04-14T11:14:43.944Z,5.41
2019-04-14T11:17:14.390Z,5.40
2019-04-14T11:19:44.840Z,5.40
2019-04-14T11:22:15.322Z,5.46
2019-04-14T11:24:46.085Z,5.36
2019-04-14T11:27:16.862Z,5.39
2019-04-14T11:29:47.767Z,5.42
2019-04-14T11:32:43.077Z,5.39
2019-04-14T11:35:19.111Z,5.32
2019-04-14T11:38:12.076Z,5.33
2019-04-14T11:40:45.578Z,5.32
2019-04-14T11:43:16.016Z,5.29
2019-04-14T11:45:46.834Z,5.33
2019-04-14T11:48:18.335Z,5.35
2019-04-14T11:50:49.163Z,5.29
2019-04-14T11:53:19.650Z,5.27
2019-04-14T11:55:50.498Z,5.28
2019-04-14T11:58:21.009Z,5.31
2019-04-14T12:01:13.523Z,5.29
2019-04-14T12:03:53.824Z,5.26
2019-04-14T12:06:45.296Z,5.29
2019-04-14T12:09:22.060Z,5.23
2019-04-14T12:11:52.741Z,5.20
2019-04-14T12:14:23.268Z,5.20
2019-04-14T12:16:54.214Z,5.18
2019-04-14T12:19:24.700Z,5.23
2019-04-14T12:22:07.411Z,5.22
2019-04-14T12:24:27.730Z,5.13
2019-04-14T12:26:59.914Z,5.11
2019-04-14T12:29:32.467Z,5.14
2019-04-14T12:32:06.294Z,5.19
2019-04-14T12:34:36.795Z,5.28
2019-04-14T12:37:07.233Z,5.29
2019-04-14T12:39:37.728Z,5.34
2019-04-14T12:42:22.308Z,5.30
2019-04-14T12:45:00.942Z,5.36
2019-04-14T12:47:41.879Z,5.41
2019-04-14T12:50:21.034Z,5.46
2019-04-14T12:52:51.500Z,5.42
2019-04-14T12:55:21.950Z,5.54
2019-04-14T12:57:55.508Z,5.56
2019-04-14T13:00:45.194Z,5.46
2019-04-14T13:03:16.105Z,5.48
2019-04-14T13:05:46.611Z,5.39
2019-04-14T13:08:17.048Z,5.41
2019-04-14T13:10:47.564Z,5.32
2019-04-14T13:13:18.018Z,5.31
2019-04-14T13:15:48.755Z,5.21
2019-04-14T13:18:19.238Z,5.28
2019-04-14T13:20:49.688Z,5.31
2019-04-14T13:23:20.801Z,5.28
2019-04-14T13:25:51.645Z,5.27
2019-04-14T13:28:22.095Z,5.29
2019-04-14T13:30:53.150Z,5.29
2019-04-14T13:33:23.957Z,5.32
2019-04-14T13:35:54.790Z,5.35
2019-04-14T13:38:25.830Z,5.38
2019-04-14T13:40:56.326Z,5.39
2019-04-14T13:43:27.063Z,5.33
2019-04-14T13:45:59.824Z,5.32
2019-04-14T13:48:29.730Z,5.25
2019-04-14T13:51:00.178Z,5.25
2019-04-14T13:53:30.617Z,5.33
2019-04-14T13:56:01.118Z,5.37
2019-04-14T13:58:31.933Z,5.32
2019-04-14T14:01:02.678Z,5.32
2019-04-14T14:03:33.799Z,5.25
2019-04-14T14:06:04.629Z,5.31
2019-04-14T14:08:35.057Z,5.35
2019-04-14T14:11:24.647Z,5.33
2019-04-14T14:13:59.913Z,5.35
2019-04-14T14:16:52.378Z,5.31
2019-04-14T14:19:35.340Z,5.36
2019-04-14T14:22:16.017Z,5.33
2019-04-14T14:24:55.029Z,5.32
2019-04-14T14:27:25.868Z,5.29
2019-04-14T14:29:57.321Z,5.42
2019-04-14T14:32:31.138Z,5.37
2019-04-14T14:35:01.584Z,5.31
2019-04-14T14:37:34.117Z,5.37
2019-04-14T14:40:05.340Z,5.37
2019-04-14T14:42:38.048Z,5.39
2019-04-14T14:45:27.202Z,5.36
2019-04-14T14:48:15.278Z,5.31
2019-04-14T14:51:05.027Z,5.21
2019-04-14T14:53:35.956Z,5.18
2019-04-14T14:56:08.172Z,5.14
2019-04-14T14:58:39.246Z,5.12
2019-04-14T15:01:09.979Z,5.10
2019-04-14T15:03:40.451Z,5.07
2019-04-14T15:06:10.936Z,5.06
2019-04-14T15:08:41.725Z,5.05
2019-04-14T15:11:12.192Z,5.01
2019-04-14T15:13:43.491Z,4.94
2019-04-14T15:16:14.747Z,4.94
2019-04-14T15:18:47.507Z,4.93
2019-04-14T15:21:18.002Z,4.96
2019-04-14T15:23:48.442Z,4.93
2019-04-14T15:26:18.887Z,4.97
2019-04-14T15:28:49.665Z,4.96
2019-04-14T15:31:20.102Z,4.98
2019-04-14T15:33:50.575Z,4.93
2019-04-14T15:36:21.061Z,5.01
2019-04-14T15:38:51.890Z,4.99
2019-04-14T15:41:22.334Z,4.99
2019-04-14T15:43:53.209Z,5.00
2019-04-14T15:46:23.651Z,4.96
2019-04-14T15:48:54.110Z,4.96
2019-04-14T15:51:24.606Z,5.00
2019-04-14T15:53:55.055Z,4.98
2019-04-14T15:56:45.227Z,5.04
2019-04-14T15:59:34.595Z,4.99
2019-04-14T16:02:27.490Z,4.99
2019-04-14T16:05:15.906Z,5.04
2019-04-14T16:08:08.746Z,5.04
2019-04-14T16:10:44.354Z,5.09
2019-04-14T16:13:40.307Z,5.00
2019-04-14T16:16:21.032Z,5.07
2019-04-14T16:19:02.347Z,5.07
2019-04-14T16:21:33.168Z,5.07
2019-04-14T16:24:03.627Z,5.06
2019-04-14T16:27:05.704Z,5.08
2019-04-14T16:29:40.827Z,5.10
2019-04-14T16:32:25.270Z,5.01
2019-04-14T16:35:01.783Z,5.10
2019-04-14T16:37:34.009Z,5.11
2019-04-14T16:40:04.821Z,5.15
2019-04-14T16:42:35.941Z,5.06
2019-04-14T16:45:06.902Z,5.08
2019-04-14T16:47:37.653Z,5.07
2019-04-14T16:50:09.313Z,5.10
2019-04-14T16:52:46.394Z,5.08
2019-04-14T16:55:34.551Z,5.08
2019-04-14T16:58:36.200Z,5.14
2019-04-14T17:01:12.367Z,5.12
2019-04-14T17:03:42.877Z,5.14
2019-04-14T17:06:13.331Z,5.12
2019-04-14T17:08:44.133Z,5.13
2019-04-14T17:11:14.675Z,5.12
2019-04-14T17:13:50.642Z,5.16
2019-04-14T17:16:39.189Z,5.14
2019-04-14T17:19:14.233Z,5.08
2019-04-14T17:22:12.833Z,5.07
2019-04-14T17:25:02.479Z,5.08
2019-04-14T17:27:47.582Z,5.10
2019-04-14T17:30:32.117Z,5.19
2019-04-14T17:33:21.605Z,5.18
2019-04-14T17:36:14.189Z,5.13
2019-04-14T17:38:57.497Z,5.16
2019-04-14T17:41:59.591Z,5.17
2019-04-14T17:44:38.858Z,5.20
2019-04-14T17:47:34.380Z,5.21
2019-04-14T17:50:40.660Z,5.25
2019-04-14T17:53:17.778Z,5.24
2019-04-14T17:56:06.452Z,5.22
2019-04-14T17:58:49.823Z,5.23
2019-04-14T18:01:51.553Z,5.23
2019-04-14T18:04:47.038Z,5.21
2019-04-14T18:07:23.582Z,5.25
2019-04-14T18:10:02.292Z,5.17
2019-04-14T18:12:38.171Z,5.18
2019-04-14T18:15:28.087Z,5.25
2019-04-14T18:18:23.530Z,5.28
2019-04-14T18:20:57.522Z,5.25
2019-04-14T18:23:28.316Z,5.20
2019-04-14T18:25:58.800Z,5.21
2019-04-14T18:28:41.546Z,5.24
2019-04-14T18:31:31.345Z,5.26
2019-04-14T18:34:32.683Z,5.22
2019-04-14T18:37:28.376Z,5.18
2019-04-14T18:40:35.789Z,5.23
2019-04-14T18:43:25.684Z,5.18
2019-04-14T18:46:15.047Z,5.15
2019-04-14T18:48:53.634Z,5.19
2019-04-14T18:51:41.369Z,5.19
2019-04-14T18:54:30.222Z,5.14
2019-04-14T18:57:14.437Z,5.18
2019-04-14T18:59:58.715Z,5.24
2019-04-14T19:02:29.172Z,5.23
2019-04-14T19:04:59.652Z,5.15
2019-04-14T19:07:30.107Z,5.14
2019-04-14T19:10:02.259Z,5.10
2019-04-14T19:12:43.203Z,5.23
2019-04-14T19:15:24.208Z,5.26
2019-04-14T19:18:16.902Z,5.18
2019-04-14T19:20:52.355Z,5.15
2019-04-14T19:23:23.808Z,5.18
2019-04-14T19:25:54.248Z,5.15
2019-04-14T19:28:24.686Z,5.19
2019-04-14T19:30:55.204Z,5.24
2019-04-14T19:33:26.526Z,5.27
2019-04-14T19:35:57.326Z,5.28
2019-04-14T19:38:28.167Z,5.26
2019-04-14T19:40:58.735Z,5.35
2019-04-14T19:43:30.665Z,5.37
2019-04-14T19:46:01.192Z,5.34
2019-04-14T19:48:32.059Z,5.34
2019-04-14T19:51:05.843Z,5.27
2019-04-14T19:53:36.612Z,5.23
2019-04-14T19:56:07.326Z,5.19
2019-04-14T19:58:38.305Z,5.20
2019-04-14T20:01:08.751Z,5.18
2019-04-14T20:03:39.263Z,5.24
2019-04-14T20:06:09.790Z,5.18
2019-04-14T20:08:42.262Z,5.19
2019-04-14T20:11:12.737Z,5.19
2019-04-14T20:13:46.038Z,5.19
2019-04-14T20:16:34.569Z,5.20
2019-04-14T20:19:27.430Z,5.21
2019-04-14T20:22:10.882Z,5.20
2019-04-14T20:25:06.196Z,5.19
2019-04-14T20:28:01.727Z,5.18
2019-04-14T20:30:36.493Z,5.23
2019-04-14T20:33:06.930Z,5.23
2019-04-14T20:35:37.790Z,5.23
2019-04-14T20:38:08.604Z,5.25
2019-04-14T20:40:39.054Z,5.24
2019-04-14T20:43:10.070Z,5.25
2019-04-14T20:45:40.991Z,5.25
2019-04-14T20:48:11.814Z,5.24
2019-04-14T20:50:42.437Z,5.25
2019-04-14T20:53:12.918Z,5.19
2019-04-14T20:55:47.195Z,5.17
2019-04-14T20:58:15.503Z,5.18
2019-04-14T21:00:46.359Z,5.20
2019-04-14T21:03:36.286Z,5.22
2019-04-14T21:06:21.044Z,5.23
2019-04-14T21:09:16.686Z,5.24
2019-04-14T21:12:12.211Z,5.25
2019-04-14T21:15:01.620Z,5.23
2019-04-14T21:17:47.146Z,5.25
2019-04-14T21:20:25.950Z,5.23
2019-04-14T21:23:25.876Z,5.24
2019-04-14T21:26:04.463Z,5.24
2019-04-14T21:28:41.150Z,5.29
2019-04-14T21:31:16.831Z,5.31
2019-04-14T21:34:05.452Z,5.25
2019-04-14T21:36:57.969Z,5.27
2019-04-14T21:39:50.425Z,5.25
2019-04-14T21:42:21.303Z,5.24
2019-04-14T21:44:52.082Z,5.27
2019-04-14T21:47:22.639Z,5.26
2019-04-14T21:49:53.076Z,5.28
2019-04-14T21:52:44.332Z,5.29
2019-04-14T21:55:14.778Z,5.31
2019-04-14T21:58:02.798Z,5.29
2019-04-14T22:01:28.710Z,5.27
2019-04-14T22:04:21.767Z,5.30
2019-04-14T22:06:52.601Z,5.30
2019-04-14T22:09:28.810Z,5.31
2019-04-14T22:11:59.593Z,5.32
2019-04-14T22:14:30.035Z,5.29
2019-04-14T22:17:00.537Z,5.27
2019-04-14T22:19:31.321Z,5.27
2019-04-14T22:22:01.763Z,5.24
2019-04-14T22:24:32.607Z,5.28
2019-04-14T22:27:03.076Z,5.27
2019-04-14T22:29:33.821Z,5.26
2019-04-14T22:32:04.662Z,5.25
2019-04-14T22:34:35.397Z,5.26
2019-04-14T22:37:05.829Z,5.28
2019-04-14T22:39:39.126Z,5.31
2019-04-14T22:42:08.797Z,5.26
2019-04-14T22:44:39.309Z,5.28
2019-04-14T22:47:09.819Z,5.29
2019-04-14T22:49:40.644Z,5.29
2019-04-14T22:52:11.079Z,5.30
2019-04-14T22:54:41.562Z,5.33
2019-04-14T22:57:12.000Z,5.35
2019-04-14T22:59:42.467Z,5.39
2019-04-14T23:02:20.895Z,5.36
2019-04-14T23:05:16.479Z,5.30
2019-04-14T23:07:57.304Z,5.25
2019-04-14T23:10:51.002Z,5.23
2019-04-14T23:13:43.678Z,5.18
2019-04-14T23:16:33.072Z,5.19
2019-04-14T23:19:11.079Z,5.12
2019-04-14T23:21:45.786Z,5.10
2019-04-14T23:24:21.288Z,5.07
2019-04-14T23:26:53.222Z,5.06
2019-04-14T23:29:24.330Z,5.06
2019-04-14T23:31:54.814Z,5.06
2019-04-14T23:34:25.248Z,5.14
2019-04-14T23:36:55.981Z,5.16
2019-04-14T23:39:26.469Z,5.13
2019-04-14T23:41:57.778Z,5.16
2019-04-14T23:44:28.218Z,5.14
2019-04-14T23:46:59.033Z,5.13
2019-04-14T23:49:29.536Z,5.13
2019-04-14T23:51:59.998Z,5.14
2019-04-14T23:54:30.567Z,5.13
2019-04-14T23:57:05.872Z,5.12
2019-04-14T23:59:33.921Z,5.15
